sensor_id;sensor_type;location;lat;lon;timestamp;pressure;altitude;pressure_sealevel;temperature;humidity
68793;BME280;55778;54.346;10.210;2023-01-28T00:00:25;102634.78;;;0.27;87.54
68793;BME280;55778;54.346;10.210;2023-01-28T00:02:50;102647.59;;;0.13;88.84
68793;BME280;55778;54.346;10.210;2023-01-28T00:05:16;102654.75;;;0.12;89.04
68793;BME280;55778;54.346;10.210;2023-01-28T00:07:42;102640.53;;;0.10;89.30
68793;BME280;55778;54.346;10.210;2023-01-28T00:10:08;102640.56;;;0.09;89.68
68793;BME280;55778;54.346;10.210;2023-01-28T00:12:33;102643.00;;;0.19;90.15
68793;BME280;55778;54.346;10.210;2023-01-28T00:14:59;102645.09;;;0.05;90.91
68793;BME280;55778;54.346;10.210;2023-01-28T00:17:24;102647.53;;;0.16;89.19
68793;BME280;55778;54.346;10.210;2023-01-28T00:19:49;102656.56;;;0.12;89.76
68793;BME280;55778;54.346;10.210;2023-01-28T00:22:15;102652.22;;;0.06;90.50
68793;BME280;55778;54.346;10.210;2023-01-28T00:24:40;102659.22;;;0.13;89.95
68793;BME280;55778;54.346;10.210;2023-01-28T00:27:06;102648.56;;;0.10;90.12
68793;BME280;55778;54.346;10.210;2023-01-28T00:29:31;102646.69;;;0.14;90.16
68793;BME280;55778;54.346;10.210;2023-01-28T00:31:56;102643.81;;;0.21;89.74
68793;BME280;55778;54.346;10.210;2023-01-28T00:34:22;102648.31;;;0.21;90.12
68793;BME280;55778;54.346;10.210;2023-01-28T00:36:47;102652.13;;;0.09;91.14
68793;BME280;55778;54.346;10.210;2023-01-28T00:39:21;102653.06;;;0.08;92.19
68793;BME280;55778;54.346;10.210;2023-01-28T00:41:47;102648.66;;;0.06;92.33
68793;BME280;55778;54.346;10.210;2023-01-28T00:44:12;102652.13;;;0.09;92.47
68793;BME280;55778;54.346;10.210;2023-01-28T00:46:38;102642.31;;;0.10;92.82
68793;BME280;55778;54.346;10.210;2023-01-28T00:49:06;102642.28;;;0.11;93.03
68793;BME280;55778;54.346;10.210;2023-01-28T00:51:32;102638.50;;;0.20;93.09
68793;BME280;55778;54.346;10.210;2023-01-28T00:53:57;102633.34;;;0.11;93.48
68793;BME280;55778;54.346;10.210;2023-01-28T00:56:23;102636.94;;;0.10;92.99
68793;BME280;55778;54.346;10.210;2023-01-28T00:58:49;102629.81;;;0.10;93.39
68793;BME280;55778;54.346;10.210;2023-01-28T01:01:20;102627.97;;;0.11;93.09
68793;BME280;55778;54.346;10.210;2023-01-28T01:03:47;102637.69;;;0.18;93.42
68793;BME280;55778;54.346;10.210;2023-01-28T01:06:14;102628.78;;;0.16;93.34
68793;BME280;55778;54.346;10.210;2023-01-28T01:08:40;102635.97;;;0.14;92.17
68793;BME280;55778;54.346;10.210;2023-01-28T01:11:08;102643.25;;;0.09;92.81
68793;BME280;55778;54.346;10.210;2023-01-28T01:13:34;102647.75;;;0.07;93.70
68793;BME280;55778;54.346;10.210;2023-01-28T01:16:05;102650.34;;;0.10;93.69
68793;BME280;55778;54.346;10.210;2023-01-28T01:18:31;102645.88;;;0.10;93.49
68793;BME280;55778;54.346;10.210;2023-01-28T01:20:58;102636.09;;;0.08;93.64
68793;BME280;55778;54.346;10.210;2023-01-28T01:23:28;102635.13;;;0.12;93.91
68793;BME280;55778;54.346;10.210;2023-01-28T01:25:54;102644.03;;;0.12;93.82
68793;BME280;55778;54.346;10.210;2023-01-28T01:28:20;102634.47;;;0.00;91.90
68793;BME280;55778;54.346;10.210;2023-01-28T01:30:47;102636.53;;;0.28;87.92
68793;BME280;55778;54.346;10.210;2023-01-28T01:33:13;102626.94;;;0.18;89.50
68793;BME280;55778;54.346;10.210;2023-01-28T01:35:38;102623.75;;;0.00;90.46
68793;BME280;55778;54.346;10.210;2023-01-28T01:38:05;102619.88;;;0.14;88.65
68793;BME280;55778;54.346;10.210;2023-01-28T01:40:30;102623.13;;;-0.11;91.44
68793;BME280;55778;54.346;10.210;2023-01-28T01:42:56;102615.31;;;-0.21;91.91
68793;BME280;55778;54.346;10.210;2023-01-28T01:45:21;102615.22;;;-0.17;90.18
68793;BME280;55778;54.346;10.210;2023-01-28T01:47:56;102605.78;;;-0.36;91.24
68793;BME280;55778;54.346;10.210;2023-01-28T01:50:39;102613.75;;;-0.33;90.75
68793;BME280;55778;54.346;10.210;2023-01-28T01:53:15;102610.63;;;-0.53;91.32
68793;BME280;55778;54.346;10.210;2023-01-28T01:55:49;102609.25;;;-0.73;93.18
68793;BME280;55778;54.346;10.210;2023-01-28T01:58:18;102610.38;;;-0.85;93.65
68793;BME280;55778;54.346;10.210;2023-01-28T02:00:45;102614.03;;;-0.90;95.29
68793;BME280;55778;54.346;10.210;2023-01-28T02:03:10;102603.16;;;-0.81;94.12
68793;BME280;55778;54.346;10.210;2023-01-28T02:05:37;102601.47;;;-0.85;93.73
68793;BME280;55778;54.346;10.210;2023-01-28T02:08:03;102608.72;;;-0.92;93.77
68793;BME280;55778;54.346;10.210;2023-01-28T02:10:52;102613.41;;;-1.04;93.95
68793;BME280;55778;54.346;10.210;2023-01-28T02:13:21;102616.41;;;-1.21;94.46
68793;BME280;55778;54.346;10.210;2023-01-28T02:15:48;102618.94;;;-1.13;95.39
68793;BME280;55778;54.346;10.210;2023-01-28T02:18:14;102609.09;;;-1.11;95.30
68793;BME280;55778;54.346;10.210;2023-01-28T02:26:35;102610.47;;;-1.39;95.60
68793;BME280;55778;54.346;10.210;2023-01-28T02:31:34;102608.22;;;-1.65;97.36
68793;BME280;55778;54.346;10.210;2023-01-28T02:34:18;102612.81;;;-1.74;97.80
68793;BME280;55778;54.346;10.210;2023-01-28T02:36:54;102612.09;;;-1.84;97.97
68793;BME280;55778;54.346;10.210;2023-01-28T02:39:32;102603.28;;;-1.90;98.83
68793;BME280;55778;54.346;10.210;2023-01-28T02:42:09;102605.00;;;-1.88;99.35
68793;BME280;55778;54.346;10.210;2023-01-28T02:44:37;102595.13;;;-1.81;100.00
68793;BME280;55778;54.346;10.210;2023-01-28T02:47:09;102606.34;;;-1.60;98.76
68793;BME280;55778;54.346;10.210;2023-01-28T02:49:55;102607.13;;;-1.52;97.72
68793;BME280;55778;54.346;10.210;2023-01-28T03:06:08;102599.19;;;-1.56;96.81
68793;BME280;55778;54.346;10.210;2023-01-28T03:08:39;102596.47;;;-1.53;96.75
68793;BME280;55778;54.346;10.210;2023-01-28T03:11:27;102593.75;;;-1.52;96.42
68793;BME280;55778;54.346;10.210;2023-01-28T03:14:13;102597.19;;;-1.45;96.02
68793;BME280;55778;54.346;10.210;2023-01-28T03:17:00;102596.28;;;-1.43;95.78
68793;BME280;55778;54.346;10.210;2023-01-28T03:19:45;102585.50;;;-1.38;95.25
68793;BME280;55778;54.346;10.210;2023-01-28T03:22:33;102593.59;;;-1.43;95.57
68793;BME280;55778;54.346;10.210;2023-01-28T03:25:21;102591.13;;;-1.55;96.68
68793;BME280;55778;54.346;10.210;2023-01-28T03:28:12;102603.59;;;-1.54;96.50
68793;BME280;55778;54.346;10.210;2023-01-28T03:31:08;102588.66;;;-1.67;96.45
68793;BME280;55778;54.346;10.210;2023-01-28T03:33:55;102589.78;;;-1.81;96.81
68793;BME280;55778;54.346;10.210;2023-01-28T03:36:40;102584.50;;;-1.84;98.91
68793;BME280;55778;54.346;10.210;2023-01-28T03:39:24;102590.53;;;-1.73;98.27
68793;BME280;55778;54.346;10.210;2023-01-28T03:42:10;102588.66;;;-1.67;97.41
68793;BME280;55778;54.346;10.210;2023-01-28T03:44:36;102582.28;;;-1.58;97.14
68793;BME280;55778;54.346;10.210;2023-01-28T03:47:24;102578.03;;;-1.71;97.51
68793;BME280;55778;54.346;10.210;2023-01-28T03:49:51;102576.53;;;-1.87;97.57
68793;BME280;55778;54.346;10.210;2023-01-28T03:52:20;102578.47;;;-2.00;98.18
68793;BME280;55778;54.346;10.210;2023-01-28T03:54:46;102585.63;;;-2.00;99.06
68793;BME280;55778;54.346;10.210;2023-01-28T03:57:17;102586.38;;;-1.92;98.93
68793;BME280;55778;54.346;10.210;2023-01-28T03:59:42;102586.38;;;-1.92;98.86
68793;BME280;55778;54.346;10.210;2023-01-28T04:02:09;102581.13;;;-1.98;99.39
68793;BME280;55778;54.346;10.210;2023-01-28T04:04:37;102589.09;;;-1.95;99.67
68793;BME280;55778;54.346;10.210;2023-01-28T04:07:02;102588.09;;;-1.87;99.13
68793;BME280;55778;54.346;10.210;2023-01-28T04:09:28;102587.13;;;-1.81;98.53
68793;BME280;55778;54.346;10.210;2023-01-28T04:11:53;102588.69;;;-1.68;97.83
68793;BME280;55778;54.346;10.210;2023-01-28T04:14:18;102593.06;;;-1.64;97.30
68793;BME280;55778;54.346;10.210;2023-01-28T04:16:44;102592.13;;;-1.60;97.16
68793;BME280;55778;54.346;10.210;2023-01-28T04:19:10;102593.19;;;-1.73;97.77
68793;BME280;55778;54.346;10.210;2023-01-28T04:21:39;102604.84;;;-1.77;97.67
68793;BME280;55778;54.346;10.210;2023-01-28T04:24:05;102602.38;;;-1.89;98.10
68793;BME280;55778;54.346;10.210;2023-01-28T04:26:31;102599.81;;;-1.97;98.42
68793;BME280;55778;54.346;10.210;2023-01-28T04:28:56;102592.78;;;-2.03;98.38
68793;BME280;55778;54.346;10.210;2023-01-28T04:31:21;102597.41;;;-2.17;98.55
68793;BME280;55778;54.346;10.210;2023-01-28T04:33:48;102590.34;;;-2.19;99.49
68793;BME280;55778;54.346;10.210;2023-01-28T04:36:14;102593.88;;;-2.17;99.74
68793;BME280;55778;54.346;10.210;2023-01-28T04:38:39;102591.97;;;-2.09;99.65
68793;BME280;55778;54.346;10.210;2023-01-28T04:41:05;102582.94;;;-1.99;98.96
68793;BME280;55778;54.346;10.210;2023-01-28T04:43:30;102581.19;;;-2.02;99.01
68793;BME280;55778;54.346;10.210;2023-01-28T04:45:55;102580.13;;;-1.90;98.35
68793;BME280;55778;54.346;10.210;2023-01-28T04:48:21;102583.53;;;-1.80;97.43
68793;BME280;55778;54.346;10.210;2023-01-28T04:50:46;102582.75;;;-1.85;97.81
68793;BME280;55778;54.346;10.210;2023-01-28T04:53:12;102568.50;;;-1.87;98.13
68793;BME280;55778;54.346;10.210;2023-01-28T04:55:37;102577.53;;;-1.94;98.80
68793;BME280;55778;54.346;10.210;2023-01-28T04:58:03;102574.13;;;-2.06;98.59
68793;BME280;55778;54.346;10.210;2023-01-28T05:00:28;102572.38;;;-2.08;99.05
68793;BME280;55778;54.346;10.210;2023-01-28T05:02:54;102561.88;;;-2.19;99.10
68793;BME280;55778;54.346;10.210;2023-01-28T05:05:19;102563.88;;;-2.36;99.64
68793;BME280;55778;54.346;10.210;2023-01-28T05:07:52;102556.00;;;-2.46;100.00
68793;BME280;55778;54.346;10.210;2023-01-28T05:10:18;102546.13;;;-2.38;100.00
68793;BME280;55778;54.346;10.210;2023-01-28T05:12:44;102538.34;;;-2.56;100.00
68793;BME280;55778;54.346;10.210;2023-01-28T05:15:09;102534.06;;;-2.68;100.00
68793;BME280;55778;54.346;10.210;2023-01-28T05:17:35;102545.75;;;-2.78;100.00
68793;BME280;55778;54.346;10.210;2023-01-28T05:20:00;102534.28;;;-2.86;100.00
68793;BME280;55778;54.346;10.210;2023-01-28T05:22:26;102518.91;;;-2.63;100.00
68793;BME280;55778;54.346;10.210;2023-01-28T05:24:51;102508.03;;;-2.51;100.00
68793;BME280;55778;54.346;10.210;2023-01-28T05:27:16;102532.00;;;-2.48;100.00
68793;BME280;55778;54.346;10.210;2023-01-28T05:29:42;102534.84;;;-2.58;100.00
68793;BME280;55778;54.346;10.210;2023-01-28T05:32:08;102522.38;;;-2.58;100.00
68793;BME280;55778;54.346;10.210;2023-01-28T05:34:33;102520.66;;;-2.62;100.00
68793;BME280;55778;54.346;10.210;2023-01-28T05:36:58;102510.84;;;-2.60;100.00
68793;BME280;55778;54.346;10.210;2023-01-28T05:39:24;102500.19;;;-2.60;100.00
68793;BME280;55778;54.346;10.210;2023-01-28T05:41:49;102509.53;;;-2.30;100.00
68793;BME280;55778;54.346;10.210;2023-01-28T05:44:15;102508.59;;;-2.28;100.00
68793;BME280;55778;54.346;10.210;2023-01-28T05:46:40;102499.00;;;-2.41;100.00
68793;BME280;55778;54.346;10.210;2023-01-28T05:49:10;102503.47;;;-2.43;100.00
68793;BME280;55778;54.346;10.210;2023-01-28T05:51:38;102500.09;;;-2.55;100.00
68793;BME280;55778;54.346;10.210;2023-01-28T05:54:04;102508.22;;;-2.63;100.00
68793;BME280;55778;54.346;10.210;2023-01-28T05:56:29;102515.34;;;-2.65;100.00
68793;BME280;55778;54.346;10.210;2023-01-28T05:58:55;102511.00;;;-2.72;100.00
68793;BME280;55778;54.346;10.210;2023-01-28T06:01:20;102510.25;;;-2.83;100.00
68793;BME280;55778;54.346;10.210;2023-01-28T06:03:46;102520.19;;;-2.94;100.00
68793;BME280;55778;54.346;10.210;2023-01-28T06:06:11;102528.28;;;-3.03;100.00
68793;BME280;55778;54.346;10.210;2023-01-28T06:08:36;102530.13;;;-3.09;100.00
68793;BME280;55778;54.346;10.210;2023-01-28T06:11:02;102528.38;;;-3.09;100.00
68793;BME280;55778;54.346;10.210;2023-01-28T06:13:28;102539.84;;;-3.05;100.00
68793;BME280;55778;54.346;10.210;2023-01-28T06:15:53;102538.19;;;-3.14;100.00
68793;BME280;55778;54.346;10.210;2023-01-28T06:18:18;102549.63;;;-3.03;100.00
68793;BME280;55778;54.346;10.210;2023-01-28T06:20:44;102543.34;;;-2.97;100.00
68793;BME280;55778;54.346;10.210;2023-01-28T06:23:09;102546.81;;;-2.92;100.00
68793;BME280;55778;54.346;10.210;2023-01-28T06:25:34;102559.97;;;-2.77;100.00
68793;BME280;55778;54.346;10.210;2023-01-28T06:28:00;102558.09;;;-2.69;100.00
68793;BME280;55778;54.346;10.210;2023-01-28T06:30:25;102556.28;;;-2.64;100.00
68793;BME280;55778;54.346;10.210;2023-01-28T06:32:55;102561.59;;;-2.63;100.00
68793;BME280;55778;54.346;10.210;2023-01-28T06:35:23;102570.41;;;-2.59;100.00
68793;BME280;55778;54.346;10.210;2023-01-28T06:37:49;102557.00;;;-2.55;100.00
68793;BME280;55778;54.346;10.210;2023-01-28T06:40:14;102551.72;;;-2.58;100.00
68793;BME280;55778;54.346;10.210;2023-01-28T06:42:40;102553.50;;;-2.57;100.00
68793;BME280;55778;54.346;10.210;2023-01-28T06:45:06;102556.22;;;-2.60;100.00
68793;BME280;55778;54.346;10.210;2023-01-28T06:47:31;102556.22;;;-2.61;100.00
68793;BME280;55778;54.346;10.210;2023-01-28T06:49:57;102554.28;;;-2.50;100.00
68793;BME280;55778;54.346;10.210;2023-01-28T06:52:22;102553.44;;;-2.54;100.00
68793;BME280;55778;54.346;10.210;2023-01-28T06:54:47;102548.19;;;-2.58;100.00
68793;BME280;55778;54.346;10.210;2023-01-28T06:57:13;102546.25;;;-2.49;100.00
68793;BME280;55778;54.346;10.210;2023-01-28T06:59:38;102557.84;;;-2.48;100.00
68793;BME280;55778;54.346;10.210;2023-01-28T07:02:03;102568.22;;;-2.27;100.00
68793;BME280;55778;54.346;10.210;2023-01-28T07:04:30;102563.81;;;-2.31;100.00
68793;BME280;55778;54.346;10.210;2023-01-28T07:06:56;102550.38;;;-2.25;100.00
68793;BME280;55778;54.346;10.210;2023-01-28T07:09:21;102563.75;;;-2.28;100.00
68793;BME280;55778;54.346;10.210;2023-01-28T07:11:46;102558.47;;;-2.31;100.00
68793;BME280;55778;54.346;10.210;2023-01-28T07:14:12;102564.56;;;-2.20;100.00
68793;BME280;55778;54.346;10.210;2023-01-28T07:16:37;102563.63;;;-2.19;100.00
68793;BME280;55778;54.346;10.210;2023-01-28T07:19:03;102569.97;;;-2.26;100.00
68793;BME280;55778;54.346;10.210;2023-01-28T07:21:28;102575.31;;;-2.26;100.00
68793;BME280;55778;54.346;10.210;2023-01-28T07:23:53;102560.91;;;-2.15;100.00
68793;BME280;55778;54.346;10.210;2023-01-28T07:26:20;102574.16;;;-2.09;100.00
68793;BME280;55778;54.346;10.210;2023-01-28T07:28:46;102563.97;;;-1.82;100.00
68793;BME280;55778;54.346;10.210;2023-01-28T07:31:11;102557.53;;;-1.69;100.00
68793;BME280;55778;54.346;10.210;2023-01-28T07:33:37;102569.72;;;-1.53;99.89
68793;BME280;55778;54.346;10.210;2023-01-28T07:36:02;102564.19;;;-1.43;98.71
68793;BME280;55778;54.346;10.210;2023-01-28T07:38:28;102564.78;;;-1.27;97.91
68793;BME280;55778;54.346;10.210;2023-01-28T07:40:53;102566.03;;;-0.99;96.63
68793;BME280;55778;54.346;10.210;2023-01-28T07:43:19;102568.31;;;-0.78;94.65
68793;BME280;55778;54.346;10.210;2023-01-28T07:45:44;102566.13;;;-0.58;94.25
68793;BME280;55778;54.346;10.210;2023-01-28T07:48:11;102561.53;;;-0.53;92.53
68793;BME280;55778;54.346;10.210;2023-01-28T07:50:38;102564.16;;;-0.09;91.25
68793;BME280;55778;54.346;10.210;2023-01-28T07:53:06;102570.03;;;0.07;90.07
68793;BME280;55778;54.346;10.210;2023-01-28T07:55:31;102563.97;;;0.35;88.25
68793;BME280;55778;54.346;10.210;2023-01-28T07:58:00;102570.66;;;0.18;88.45
68793;BME280;55778;54.346;10.210;2023-01-28T08:00:27;102576.63;;;-0.08;88.78
68793;BME280;55778;54.346;10.210;2023-01-28T08:02:58;102584.78;;;-0.14;89.26
68793;BME280;55778;54.346;10.210;2023-01-28T08:05:24;102581.38;;;-0.22;89.25
68793;BME280;55778;54.346;10.210;2023-01-28T08:07:51;102578.44;;;-0.50;89.96
68793;BME280;55778;54.346;10.210;2023-01-28T08:10:18;102583.94;;;-0.57;90.95
68793;BME280;55778;54.346;10.210;2023-01-28T08:12:57;102591.28;;;-0.68;91.44
68793;BME280;55778;54.346;10.210;2023-01-28T08:15:26;102589.56;;;-0.71;91.98
68793;BME280;55778;54.346;10.210;2023-01-28T08:17:59;102607.63;;;-0.80;93.37
68793;BME280;55778;54.346;10.210;2023-01-28T08:20:26;102608.44;;;-0.78;92.79
68793;BME280;55778;54.346;10.210;2023-01-28T08:22:52;102602.22;;;-0.77;93.08
68793;BME280;55778;54.346;10.210;2023-01-28T08:25:18;102603.53;;;-0.55;93.21
68793;BME280;55778;54.346;10.210;2023-01-28T08:27:43;102599.19;;;-0.62;91.93
68793;BME280;55778;54.346;10.210;2023-01-28T08:30:09;102595.50;;;-0.55;92.37
68793;BME280;55778;54.346;10.210;2023-01-28T08:32:35;102595.38;;;-0.49;93.15
68793;BME280;55778;54.346;10.210;2023-01-28T08:35:01;102596.41;;;-0.56;93.03
68793;BME280;55778;54.346;10.210;2023-01-28T08:37:26;102606.50;;;-0.26;92.24
68793;BME280;55778;54.346;10.210;2023-01-28T08:39:51;102613.75;;;-0.33;91.86
68793;BME280;55778;54.346;10.210;2023-01-28T08:42:17;102614.31;;;-0.17;91.08
68793;BME280;55778;54.346;10.210;2023-01-28T08:44:42;102617.41;;;-0.37;91.54
68793;BME280;55778;54.346;10.210;2023-01-28T08:47:08;102626.31;;;-0.35;92.30
68793;BME280;55778;54.346;10.210;2023-01-28T08:49:33;102627.97;;;-0.29;92.67
68793;BME280;55778;54.346;10.210;2023-01-28T08:51:58;102626.94;;;-0.22;91.51
68793;BME280;55778;54.346;10.210;2023-01-28T08:54:24;102619.38;;;-0.04;91.42
68793;BME280;55778;54.346;10.210;2023-01-28T08:56:50;102622.16;;;-0.08;91.79
68793;BME280;55778;54.346;10.210;2023-01-28T08:59:16;102623.22;;;0.25;90.32
68793;BME280;55778;54.346;10.210;2023-01-28T09:01:42;102619.59;;;0.26;90.45
68793;BME280;55778;54.346;10.210;2023-01-28T09:04:07;102612.47;;;0.25;90.68
68793;BME280;55778;54.346;10.210;2023-01-28T09:06:32;102595.88;;;0.46;89.31
68793;BME280;55778;54.346;10.210;2023-01-28T09:08:59;102598.72;;;0.40;89.72
68793;BME280;55778;54.346;10.210;2023-01-28T09:11:25;102606.88;;;0.35;89.75
68793;BME280;55778;54.346;10.210;2023-01-28T09:13:50;102617.44;;;0.41;90.27
68793;BME280;55778;54.346;10.210;2023-01-28T09:16:16;102609.19;;;0.50;89.24
68793;BME280;55778;54.346;10.210;2023-01-28T09:18:42;102597.75;;;0.42;89.93
68793;BME280;55778;54.346;10.210;2023-01-28T09:21:07;102582.19;;;0.58;89.27
68793;BME280;55778;54.346;10.210;2023-01-28T09:23:36;102592.00;;;0.57;89.44
68793;BME280;55778;54.346;10.210;2023-01-28T09:26:03;102588.50;;;0.54;90.14
68793;BME280;55778;54.346;10.210;2023-01-28T09:28:29;102576.34;;;0.41;90.67
68793;BME280;55778;54.346;10.210;2023-01-28T09:31:06;102574.47;;;0.44;90.88
68793;BME280;55778;54.346;10.210;2023-01-28T09:33:33;102567.75;;;0.62;90.40
68793;BME280;55778;54.346;10.210;2023-01-28T09:36:00;102565.94;;;0.64;90.18
68793;BME280;55778;54.346;10.210;2023-01-28T09:38:26;102575.84;;;0.25;92.29
68793;BME280;55778;54.346;10.210;2023-01-28T09:40:53;102588.03;;;0.38;92.81
68793;BME280;55778;54.346;10.210;2023-01-28T09:43:39;102592.28;;;0.47;91.99
68793;BME280;55778;54.346;10.210;2023-01-28T09:46:11;102587.00;;;0.44;92.70
68793;BME280;55778;54.346;10.210;2023-01-28T09:48:41;102582.78;;;0.69;90.80
68793;BME280;55778;54.346;10.210;2023-01-28T09:51:25;102587.72;;;0.50;91.85
68793;BME280;55778;54.346;10.210;2023-01-28T09:53:54;102586.66;;;0.57;92.37
68793;BME280;55778;54.346;10.210;2023-01-28T09:56:29;102581.22;;;0.60;92.01
68793;BME280;55778;54.346;10.210;2023-01-28T09:58:58;102567.59;;;0.68;91.95
68793;BME280;55778;54.346;10.210;2023-01-28T10:01:39;102568.28;;;0.76;91.21
68793;BME280;55778;54.346;10.210;2023-01-28T10:18:10;102542.22;;;0.81;91.39
68793;BME280;55778;54.346;10.210;2023-01-28T10:20:41;102539.50;;;0.82;91.25
68793;BME280;55778;54.346;10.210;2023-01-28T10:23:21;102538.25;;;0.62;92.59
68793;BME280;55778;54.346;10.210;2023-01-28T10:25:48;102541.47;;;0.74;91.40
68793;BME280;55778;54.346;10.210;2023-01-28T10:28:27;102525.31;;;0.77;91.74
68793;BME280;55778;54.346;10.210;2023-01-28T10:30:53;102517.09;;;0.83;91.59
68793;BME280;55778;54.346;10.210;2023-01-28T10:35:46;102499.44;;;0.75;92.17
68793;BME280;55778;54.346;10.210;2023-01-28T10:38:15;102503.75;;;0.80;91.90
68793;BME280;55778;54.346;10.210;2023-01-28T10:40:42;102502.25;;;0.70;92.29
68793;BME280;55778;54.346;10.210;2023-01-28T10:43:08;102496.75;;;0.75;92.02
68793;BME280;55778;54.346;10.210;2023-01-28T10:45:37;102492.81;;;0.88;92.15
68793;BME280;55778;54.346;10.210;2023-01-28T10:50:49;102483.53;;;1.01;91.01
68793;BME280;55778;54.346;10.210;2023-01-28T10:53:15;102486.16;;;1.02;91.10
68793;BME280;55778;54.346;10.210;2023-01-28T10:55:51;102490.97;;;0.90;91.81
68793;BME280;55778;54.346;10.210;2023-01-28T10:58:20;102487.28;;;0.94;91.48
68793;BME280;55778;54.346;10.210;2023-01-28T11:00:52;102477.00;;;1.09;90.40
68793;BME280;55778;54.346;10.210;2023-01-28T11:03:19;102482.50;;;1.05;90.97
68793;BME280;55778;54.346;10.210;2023-01-28T11:05:52;102483.69;;;0.95;91.29
68793;BME280;55778;54.346;10.210;2023-01-28T11:08:19;102493.53;;;1.25;91.42
68793;BME280;55778;54.346;10.210;2023-01-28T11:10:46;102494.41;;;1.54;90.00
68793;BME280;55778;54.346;10.210;2023-01-28T11:13:20;102497.81;;;1.32;90.61
68793;BME280;55778;54.346;10.210;2023-01-28T11:15:53;102488.81;;;1.62;89.31
68793;BME280;55778;54.346;10.210;2023-01-28T11:18:30;102477.72;;;1.72;87.88
68793;BME280;55778;54.346;10.210;2023-01-28T11:20:58;102473.41;;;1.94;87.23
68793;BME280;55778;54.346;10.210;2023-01-28T11:23:29;102470.00;;;1.62;88.42
68793;BME280;55778;54.346;10.210;2023-01-28T11:26:05;102476.63;;;1.79;88.15
68793;BME280;55778;54.346;10.210;2023-01-28T11:28:32;102470.56;;;1.73;87.87
68793;BME280;55778;54.346;10.210;2023-01-28T11:30:59;102481.06;;;1.80;88.24
68793;BME280;55778;54.346;10.210;2023-01-28T11:38:28;102468.91;;;1.40;89.67
68793;BME280;55778;54.346;10.210;2023-01-28T11:40:56;102465.91;;;1.50;89.97
68793;BME280;55778;54.346;10.210;2023-01-28T11:43:27;102457.97;;;1.46;90.34
68793;BME280;55778;54.346;10.210;2023-01-28T11:51:56;102457.22;;;1.42;91.08
68793;BME280;55778;54.346;10.210;2023-01-28T11:54:46;102444.38;;;1.23;91.26
68793;BME280;55778;54.346;10.210;2023-01-28T12:02:52;102427.41;;;1.50;91.03
68793;BME280;55778;54.346;10.210;2023-01-28T12:14:31;102420.09;;;1.55;90.70
68793;BME280;55778;54.346;10.210;2023-01-28T12:17:25;102422.38;;;1.67;90.69
68793;BME280;55778;54.346;10.210;2023-01-28T12:41:49;102405.72;;;1.56;90.74
68793;BME280;55778;54.346;10.210;2023-01-28T12:44:34;102413.34;;;1.42;91.52
68793;BME280;55778;54.346;10.210;2023-01-28T12:47:11;102411.00;;;1.31;92.32
68793;BME280;55778;54.346;10.210;2023-01-28T12:50:09;102413.91;;;1.51;91.26
68793;BME280;55778;54.346;10.210;2023-01-28T12:53:26;102414.34;;;1.39;92.08
68793;BME280;55778;54.346;10.210;2023-01-28T12:55:59;102415.28;;;1.37;92.96
68793;BME280;55778;54.346;10.210;2023-01-28T12:58:37;102403.97;;;1.55;92.01
68793;BME280;55778;54.346;10.210;2023-01-28T13:01:07;102403.81;;;1.59;91.21
68793;BME280;55778;54.346;10.210;2023-01-28T13:03:39;102413.09;;;1.49;92.33
68793;BME280;55778;54.346;10.210;2023-01-28T13:06:26;102418.72;;;1.69;91.34
68793;BME280;55778;54.346;10.210;2023-01-28T13:09:00;102418.38;;;1.52;92.62
68793;BME280;55778;54.346;10.210;2023-01-28T13:11:32;102413.38;;;1.68;91.98
68793;BME280;55778;54.346;10.210;2023-01-28T13:13:59;102410.94;;;1.60;91.96
68793;BME280;55778;54.346;10.210;2023-01-28T13:16:25;102416.69;;;1.48;92.88
68793;BME280;55778;54.346;10.210;2023-01-28T13:18:51;102419.66;;;1.41;92.81
68793;BME280;55778;54.346;10.210;2023-01-28T13:23:49;102420.09;;;1.55;92.46
68793;BME280;55778;54.346;10.210;2023-01-28T13:28:44;102404.53;;;1.66;92.32
68793;BME280;55778;54.346;10.210;2023-01-28T13:31:11;102403.13;;;1.80;91.90
68793;BME280;55778;54.346;10.210;2023-01-28T13:33:45;102396.91;;;1.78;92.14
68793;BME280;55778;54.346;10.210;2023-01-28T13:39:02;102399.19;;;1.64;92.66
68793;BME280;55778;54.346;10.210;2023-01-28T13:44:25;102391.03;;;1.93;91.28
68793;BME280;55778;54.346;10.210;2023-01-28T13:47:11;102390.16;;;1.93;91.21
68793;BME280;55778;54.346;10.210;2023-01-28T13:49:42;102370.63;;;1.88;91.38
68793;BME280;55778;54.346;10.210;2023-01-28T13:52:31;102352.13;;;1.79;91.76
68793;BME280;55778;54.346;10.210;2023-01-28T13:58:10;102353.91;;;1.78;91.84
68793;BME280;55778;54.346;10.210;2023-01-28T14:04:32;102359.19;;;1.81;91.93
68793;BME280;55778;54.346;10.210;2023-01-28T14:09:50;102362.56;;;1.88;92.22
68793;BME280;55778;54.346;10.210;2023-01-28T14:12:33;102375.53;;;2.01;91.63
68793;BME280;55778;54.346;10.210;2023-01-28T14:17:53;102380.91;;;2.01;91.51
68793;BME280;55778;54.346;10.210;2023-01-28T14:20:42;102377.19;;;1.79;92.66
68793;BME280;55778;54.346;10.210;2023-01-28T14:23:19;102366.91;;;1.92;92.23
68793;BME280;55778;54.346;10.210;2023-01-28T14:31:31;102366.75;;;1.96;92.00
68793;BME280;55778;54.346;10.210;2023-01-28T14:36:39;102378.88;;;2.08;92.21
68793;BME280;55778;54.346;10.210;2023-01-28T14:39:13;102384.31;;;2.06;92.61
68793;BME280;55778;54.346;10.210;2023-01-28T14:41:42;102387.00;;;2.06;92.75
68793;BME280;55778;54.346;10.210;2023-01-28T14:44:08;102376.34;;;2.03;93.59
68793;BME280;55778;54.346;10.210;2023-01-28T14:47:10;102362.09;;;2.01;93.41
68793;BME280;55778;54.346;10.210;2023-01-28T14:50:18;102350.19;;;2.08;93.25
68793;BME280;55778;54.346;10.210;2023-01-28T14:53:04;102333.84;;;2.15;93.16
68793;BME280;55778;54.346;10.210;2023-01-28T14:58:18;102352.25;;;2.00;94.89